Time,TemperatureF,DewpointF,PressureIn,WindDirection,WindDirectionDegrees,WindSpeedMPH,WindSpeedGustMPH,Humidity,HourlyPrecipIn,Conditions,Clouds,dailyrainin,SolarRadiationWatts/m^2,SoftwareType,DateUTC
2013-02-09 00:07:00,44.5,42.0,30.04,North,5,0.0,1.0,91,0.00,,,0.00,0,weatherlink.com 1.10,2013-02-09 08:07:00,
2013-02-09 00:22:00,44.3,42.0,30.04,North,5,0.0,0.0,91,0.00,,,0.00,0,weatherlink.com 1.10,2013-02-09 08:22:00,
2013-02-09 00:37:00,44.4,42.0,30.05,North,5,0.0,1.0,92,0.00,,,0.00,0,weatherlink.com 1.10,2013-02-09 08:37:00,
2013-02-09 00:52:00,44.7,43.0,30.04,North,5,0.0,1.0,93,0.00,,,0.00,0,weatherlink.com 1.10,2013-02-09 08:52:00,
2013-02-09 01:07:00,45.5,44.0,30.04,North,5,0.0,1.0,94,0.00,,,0.00,0,weatherlink.com 1.10,2013-02-09 09:07:00,
2013-02-09 01:22:00,46.3,45.0,30.04,North,5,0.0,3.0,94,0.00,,,0.00,0,weatherlink.com 1.10,2013-02-09 09:22:00,
2013-02-09 01:37:00,46.9,45.0,30.04,North,349,0.0,4.0,93,0.00,,,0.00,0,weatherlink.com 1.10,2013-02-09 09:37:00,
2013-02-09 01:52:00,46.6,44.0,30.04,West,265,0.0,3.0,92,0.00,,,0.00,0,weatherlink.com 1.10,2013-02-09 09:52:00,
2013-02-09 02:07:00,46.2,44.0,30.05,West,265,0.0,1.0,92,0.00,,,0.00,0,weatherlink.com 1.10,2013-02-09 10:07:00,
2013-02-09 02:22:00,46.0,44.0,30.05,West,265,0.0,3.0,92,0.00,,,0.00,0,weatherlink.com 1.10,2013-02-09 10:22:00,
2013-02-09 02:37:00,46.5,45.0,30.05,NNE,14,0.0,5.0,93,0.00,,,0.00,0,weatherlink.com 1.10,2013-02-09 10:37:00,
2013-02-09 02:52:00,46.8,45.0,30.05,NNE,17,0.0,5.0,93,0.00,,,0.00,0,weatherlink.com 1.10,2013-02-09 10:52:00,
2013-02-09 03:07:00,46.8,45.0,30.05,NE,49,0.0,3.0,92,0.00,,,0.00,0,weatherlink.com 1.10,2013-02-09 11:07:00,
2013-02-09 03:22:00,46.5,44.0,30.05,NE,49,0.0,1.0,92,0.00,,,0.00,0,weatherlink.com 1.10,2013-02-09 11:22:00,
2013-02-09 03:37:00,46.2,44.0,30.05,NE,49,0.0,5.0,93,0.00,,,0.00,0,weatherlink.com 1.10,2013-02-09 11:37:00,
2013-02-09 03:52:00,45.8,44.0,30.05,NE,49,0.0,1.0,92,0.00,,,0.00,0,weatherlink.com 1.10,2013-02-09 11:52:00,
2013-02-09 04:07:00,45.3,43.0,30.05,NE,49,1.0,3.0,92,0.00,,,0.00,0,weatherlink.com 1.10,2013-02-09 12:07:00,
2013-02-09 04:22:00,44.6,43.0,30.06,NE,49,0.0,0.0,92,0.00,,,0.00,0,weatherlink.com 1.10,2013-02-09 12:22:00,
2013-02-09 04:39:00,44.0,42.0,30.06,NE,49,0.0,0.0,92,0.00,,,0.00,0,weatherlink.com 1.10,2013-02-09 12:39:00,
2013-02-09 04:52:00,43.6,42.0,30.06,NE,49,0.0,1.0,93,0.00,,,0.00,0,weatherlink.com 1.10,2013-02-09 12:52:00,
2013-02-09 05:07:00,43.5,42.0,30.06,NE,49,0.0,1.0,94,0.00,,,0.00,0,weatherlink.com 1.10,2013-02-09 13:07:00,
2013-02-09 05:22:00,43.4,42.0,30.06,NE,49,1.0,3.0,94,0.00,,,0.00,0,weatherlink.com 1.10,2013-02-09 13:22:00,
2013-02-09 05:37:00,42.9,41.0,30.06,NE,49,0.0,2.0,94,0.00,,,0.00,0,weatherlink.com 1.10,2013-02-09 13:37:00,
2013-02-09 05:52:00,42.6,41.0,30.07,NE,49,0.0,2.0,94,0.00,,,0.00,0,weatherlink.com 1.10,2013-02-09 13:52:00,
2013-02-09 06:08:00,42.3,41.0,30.07,NE,49,0.0,2.0,94,0.00,,,0.00,0,weatherlink.com 1.10,2013-02-09 14:08:00,
2013-02-09 06:22:00,42.0,40.0,30.07,NE,49,1.0,2.0,94,0.00,,,0.00,0,weatherlink.com 1.10,2013-02-09 14:22:00,
2013-02-09 06:37:00,41.6,40.0,30.07,NE,49,1.0,3.0,94,0.00,,,0.00,0,weatherlink.com 1.10,2013-02-09 14:37:00,
2013-02-09 06:53:00,41.5,40.0,30.08,NE,49,1.0,3.0,94,0.00,,,0.00,0,weatherlink.com 1.10,2013-02-09 14:53:00,
2013-02-09 07:07:00,41.3,40.0,30.08,NE,49,0.0,1.0,94,0.00,,,0.00,7,weatherlink.com 1.10,2013-02-09 15:07:00,
2013-02-09 07:23:00,41.3,40.0,30.08,NE,49,0.0,4.0,93,0.00,,,0.00,16,weatherlink.com 1.10,2013-02-09 15:23:00,
2013-02-09 07:38:00,42.5,41.0,30.09,NE,49,0.0,1.0,94,0.00,,,0.00,67,weatherlink.com 1.10,2013-02-09 15:38:00,
2013-02-09 07:53:00,44.0,42.0,30.09,NE,51,0.0,1.0,91,0.00,,,0.00,113,weatherlink.com 1.10,2013-02-09 15:53:00,
2013-02-09 08:08:00,45.6,41.0,30.10,NE,51,0.0,1.0,85,0.00,,,0.00,163,weatherlink.com 1.10,2013-02-09 16:08:00,
2013-02-09 08:23:00,47.6,42.0,30.10,NE,51,0.0,3.0,81,0.00,,,0.00,214,weatherlink.com 1.10,2013-02-09 16:23:00,
2013-02-09 08:38:00,50.4,42.0,30.10,NE,51,2.0,3.0,72,0.00,,,0.00,253,weatherlink.com 1.10,2013-02-09 16:38:00,
2013-02-09 08:53:00,51.4,41.0,30.10,East,82,1.0,4.0,68,0.00,,,0.00,306,weatherlink.com 1.10,2013-02-09 16:53:00,
2013-02-09 09:08:00,53.1,42.0,30.10,East,88,0.0,3.0,66,0.00,,,0.00,353,weatherlink.com 1.10,2013-02-09 17:08:00,
2013-02-09 09:23:00,53.7,41.0,30.11,ESE,109,0.0,3.0,62,0.00,,,0.00,406,weatherlink.com 1.10,2013-02-09 17:23:00,
2013-02-09 09:38:00,55.4,41.0,30.11,ESE,115,0.0,4.0,59,0.00,,,0.00,454,weatherlink.com 1.10,2013-02-09 17:38:00,
2013-02-09 09:54:00,55.9,42.0,30.11,ESE,116,1.0,1.0,59,0.00,,,0.00,490,weatherlink.com 1.10,2013-02-09 17:54:00,
2013-02-09 10:08:00,56.2,43.0,30.11,SE,136,3.0,4.0,61,0.00,,,0.00,519,weatherlink.com 1.10,2013-02-09 18:08:00,
2013-02-09 10:23:00,56.4,45.0,30.12,SE,137,0.0,4.0,66,0.00,,,0.00,550,weatherlink.com 1.10,2013-02-09 18:23:00,
2013-02-09 10:38:00,56.9,46.0,30.12,SSW,194,0.0,6.0,66,0.00,,,0.00,580,weatherlink.com 1.10,2013-02-09 18:38:00,
2013-02-09 10:53:00,57.9,46.0,30.13,SSW,198,0.0,4.0,64,0.00,,,0.00,617,weatherlink.com 1.10,2013-02-09 18:53:00,
2013-02-09 11:09:00,57.9,46.0,30.12,SW,228,1.0,6.0,65,0.00,,,0.00,636,weatherlink.com 1.10,2013-02-09 19:09:00,
2013-02-09 11:24:00,59.6,46.0,30.12,SW,228,1.0,5.0,62,0.00,,,0.00,656,weatherlink.com 1.10,2013-02-09 19:24:00,
2013-02-09 11:39:00,60.5,47.0,30.12,SW,228,1.0,4.0,62,0.00,,,0.00,661,weatherlink.com 1.10,2013-02-09 19:39:00,
2013-02-09 11:54:00,61.0,46.0,30.12,SW,229,0.0,4.0,59,0.00,,,0.00,675,weatherlink.com 1.10,2013-02-09 19:54:00,
2013-02-09 12:09:00,61.5,46.0,30.12,SW,229,1.0,4.0,58,0.00,,,0.00,686,weatherlink.com 1.10,2013-02-09 20:09:00,
2013-02-09 12:24:00,59.5,46.0,30.11,West,271,1.0,6.0,61,0.00,,,0.00,686,weatherlink.com 1.10,2013-02-09 20:24:00,
2013-02-09 12:39:00,58.9,46.0,30.11,West,273,3.0,6.0,62,0.00,,,0.00,684,weatherlink.com 1.10,2013-02-09 20:39:00,
2013-02-09 12:54:00,58.7,46.0,30.10,West,281,2.0,6.0,64,0.00,,,0.00,677,weatherlink.com 1.10,2013-02-09 20:54:00,
2013-02-09 13:09:00,59.1,46.0,30.10,West,272,1.0,6.0,63,0.00,,,0.00,666,weatherlink.com 1.10,2013-02-09 21:09:00,
2013-02-09 13:24:00,58.6,47.0,30.10,West,277,0.0,6.0,65,0.00,,,0.00,652,weatherlink.com 1.10,2013-02-09 21:24:00,
2013-02-09 13:39:00,61.1,46.0,30.10,WNW,297,1.0,7.0,59,0.00,,,0.00,638,weatherlink.com 1.10,2013-02-09 21:39:00,
2013-02-09 13:54:00,62.6,46.0,30.10,NW,311,2.0,4.0,55,0.00,,,0.00,621,weatherlink.com 1.10,2013-02-09 21:54:00,
2013-02-09 14:09:00,62.9,45.0,30.10,West,273,2.0,7.0,52,0.00,,,0.00,594,weatherlink.com 1.10,2013-02-09 22:09:00,
2013-02-09 14:24:00,62.9,45.0,30.09,West,279,0.0,5.0,52,0.00,,,0.00,564,weatherlink.com 1.10,2013-02-09 22:24:00,
2013-02-09 14:39:00,62.9,45.0,30.09,West,277,0.0,7.0,52,0.00,,,0.00,531,weatherlink.com 1.10,2013-02-09 22:39:00,
2013-02-09 14:54:00,62.6,45.0,30.09,West,278,2.0,7.0,52,0.00,,,0.00,496,weatherlink.com 1.10,2013-02-09 22:54:00,
2013-02-09 15:09:00,62.2,45.0,30.09,WNW,292,2.0,4.0,53,0.00,,,0.00,459,weatherlink.com 1.10,2013-02-09 23:09:00,
2013-02-09 15:24:00,61.4,45.0,30.09,WNW,290,0.0,7.0,56,0.00,,,0.00,413,weatherlink.com 1.10,2013-02-09 23:24:00,
2013-02-09 15:39:00,60.6,45.0,30.10,WNW,282,0.0,5.0,56,0.00,,,0.00,369,weatherlink.com 1.10,2013-02-09 23:39:00,
2013-02-09 15:54:00,61.2,44.0,30.10,West,278,1.0,4.0,54,0.00,,,0.00,320,weatherlink.com 1.10,2013-02-09 23:54:00,
2013-02-09 16:09:00,60.5,45.0,30.10,West,277,0.0,6.0,56,0.00,,,0.00,265,weatherlink.com 1.10,2013-02-10 00:09:00,
2013-02-09 16:24:00,59.6,44.0,30.10,West,274,0.0,6.0,57,0.00,,,0.00,209,weatherlink.com 1.10,2013-02-10 00:24:00,
2013-02-09 16:39:00,59.2,44.0,30.10,West,274,2.0,5.0,58,0.00,,,0.00,148,weatherlink.com 1.10,2013-02-10 00:39:00,
2013-02-09 16:54:00,60.2,44.0,30.10,West,274,1.0,1.0,56,0.00,,,0.00,93,weatherlink.com 1.10,2013-02-10 00:54:00,
2013-02-09 17:09:00,59.4,44.0,30.10,West,274,0.0,3.0,58,0.00,,,0.00,47,weatherlink.com 1.10,2013-02-10 01:09:00,
2013-02-09 17:24:00,57.6,44.0,30.09,West,274,0.0,1.0,60,0.00,,,0.00,21,weatherlink.com 1.10,2013-02-10 01:24:00,
2013-02-09 17:39:00,55.6,43.0,30.10,West,274,0.0,1.0,64,0.00,,,0.00,7,weatherlink.com 1.10,2013-02-10 01:39:00,
2013-02-09 17:54:00,53.6,43.0,30.10,West,274,0.0,2.0,67,0.00,,,0.00,0,weatherlink.com 1.10,2013-02-10 01:54:00,
2013-02-09 18:09:00,52.1,43.0,30.11,West,274,0.0,1.0,70,0.00,,,0.00,0,weatherlink.com 1.10,2013-02-10 02:09:00,
2013-02-09 18:24:00,50.6,42.0,30.11,West,273,0.0,0.0,72,0.00,,,0.00,0,weatherlink.com 1.10,2013-02-10 02:24:00,
2013-02-09 18:39:00,49.5,42.0,30.11,West,274,0.0,1.0,75,0.00,,,0.00,0,weatherlink.com 1.10,2013-02-10 02:39:00,
2013-02-09 18:54:00,48.8,42.0,30.10,West,274,0.0,1.0,77,0.00,,,0.00,0,weatherlink.com 1.10,2013-02-10 02:54:00,
2013-02-09 19:09:00,48.2,42.0,30.10,West,274,0.0,1.0,79,0.00,,,0.00,0,weatherlink.com 1.10,2013-02-10 03:09:00,
2013-02-09 19:24:00,47.7,42.0,30.10,West,273,0.0,0.0,80,0.00,,,0.00,0,weatherlink.com 1.10,2013-02-10 03:24:00,
2013-02-09 19:39:00,47.3,41.0,30.11,West,274,0.0,1.0,80,0.00,,,0.00,0,weatherlink.com 1.10,2013-02-10 03:39:00,
2013-02-09 19:54:00,46.9,42.0,30.12,West,274,0.0,0.0,82,0.00,,,0.00,0,weatherlink.com 1.10,2013-02-10 03:54:00,
2013-02-09 20:09:00,46.7,42.0,30.12,West,273,0.0,1.0,83,0.00,,,0.00,0,weatherlink.com 1.10,2013-02-10 04:09:00,
2013-02-09 20:24:00,46.5,42.0,30.12,West,273,0.0,2.0,83,0.00,,,0.00,0,weatherlink.com 1.10,2013-02-10 04:24:00,
2013-02-09 20:39:00,46.3,41.0,30.13,West,273,0.0,1.0,83,0.00,,,0.00,0,weatherlink.com 1.10,2013-02-10 04:39:00,
2013-02-09 20:55:00,46.3,42.0,30.14,West,274,0.0,1.0,84,0.00,,,0.00,0,weatherlink.com 1.10,2013-02-10 04:55:00,
2013-02-09 21:10:00,46.1,42.0,30.14,West,273,0.0,1.0,84,0.00,,,0.00,0,weatherlink.com 1.10,2013-02-10 05:10:00,
2013-02-09 21:25:00,45.9,41.0,30.14,West,273,0.0,1.0,84,0.00,,,0.00,0,weatherlink.com 1.10,2013-02-10 05:25:00,
2013-02-09 21:40:00,45.7,41.0,30.14,West,274,0.0,1.0,84,0.00,,,0.00,0,weatherlink.com 1.10,2013-02-10 05:40:00,
2013-02-09 21:54:00,45.5,41.0,30.14,West,273,0.0,1.0,84,0.00,,,0.00,0,weatherlink.com 1.10,2013-02-10 05:54:00,
2013-02-09 22:09:00,45.3,40.0,30.14,WNW,286,0.0,3.0,83,0.00,,,0.00,0,weatherlink.com 1.10,2013-02-10 06:09:00,
2013-02-09 22:24:00,45.5,41.0,30.15,WNW,286,0.0,2.0,84,0.00,,,0.00,0,weatherlink.com 1.10,2013-02-10 06:24:00,
2013-02-09 22:39:00,45.2,40.0,30.14,WNW,286,0.0,2.0,83,0.00,,,0.00,0,weatherlink.com 1.10,2013-02-10 06:39:00,
2013-02-09 22:54:00,45.0,40.0,30.14,NE,55,1.0,4.0,82,0.00,,,0.00,0,weatherlink.com 1.10,2013-02-10 06:54:00,
2013-02-09 23:09:00,45.0,38.0,30.14,East,101,6.0,8.0,77,0.00,,,0.00,0,weatherlink.com 1.10,2013-02-10 07:09:00,
2013-02-09 23:24:00,45.2,37.0,30.14,East,98,3.0,9.0,73,0.00,,,0.00,0,weatherlink.com 1.10,2013-02-10 07:24:00,
2013-02-09 23:39:00,45.3,37.0,30.14,ESE,102,0.0,7.0,73,0.00,,,0.00,0,weatherlink.com 1.10,2013-02-10 07:39:00,
2013-02-09 23:54:00,45.3,37.0,30.14,East,87,6.0,7.0,72,0.00,,,0.00,0,weatherlink.com 1.10,2013-02-10 07:54:00,